Thunder radar more information blitzortung!


Radar de pluja more information rain snow radar


Visita la nostra xarxa de llocs de meteo:

Template documentation
and downloads

And another site



No particular awareness of the weather is required.    There are no Weather-warnings

Pagina Historial Weather Underground text

Diari Resum Setembre 3, 2017 Unitats:  Imperial    Mètric   Tant
« Previous Dia
SegĂźent Dia »
Diari Setmana Mensual Anual Personalitzada
  Maxima: Minima: Media:
Temperatura: TemperatureC °F 15.5 °F 22.7 °F
Punt de rosada: DewpointC °F 10.4 °F 13.4 °F
Humitat: Humidity % 36 % 57 %
Wind Speed: WindSpeedKMH mph 0.0 mph 4.7 mph
RĂ fegues de vent: WindSpeedGustKMH mph - -
Vent:- - SSE
Pression baro: PressurehPa in 1010.7 in -
Precipitacions: 0.0 in    
Historical Graphs
 
 
Dades de taula per Setembre 3, 2017
Temps Temperatura Punt de rosada Pression baro Vent Wind Speed RĂ fegues de vent Humitat Rainfall Rate (Hourly)
TemperatureC °F DewpointC °F PressurehPa in Calm     Humidity % HourlyPrecipMM in
00:01 19.7 °F 10.9 °F 1018.8 in NNW 7.4 mph 7.4 mph 57 % 0.0 in
00:05 16.2 °F 10.5 °F 1016.8 in Calm   3.2 mph 69 % 0.0 in
00:06 19.7 °F 10.9 °F 1018.8 in NE 5.6 mph 5.6 mph 57 % 0.0 in
00:11 19.7 °F 10.9 °F 1018.8 in NNE 6.9 mph 6.9 mph 57 % 0.0 in
00:15 16.2 °F 10.7 °F 1016.8 in Calm     70 % 0.0 in
00:25 16.2 °F 10.7 °F 1016.8 in Calm     70 % 0.0 in
00:35 16.1 °F 10.8 °F 1016.8 in Calm     71 % 0.0 in
00:45 16.1 °F 10.8 °F 1016.8 in Calm     71 % 0.0 in
00:55 16.1 °F 10.8 °F 1016.8 in Calm     71 % 0.0 in
01:05 16.2 °F 11.2 °F 1016.8 in Calm     72 % 0.0 in
01:15 16.2 °F 10.9 °F 1016.8 in Calm   1.6 mph 71 % 0.0 in
01:25 16.1 °F 11.1 °F 1015.8 in Calm   1.6 mph 72 % 0.0 in
01:35 16.1 °F 10.8 °F 1015.8 in Calm   1.6 mph 71 % 0.0 in
01:45 16.1 °F 11.1 °F 1015.8 in Calm   1.6 mph 72 % 0.0 in
01:55 16.1 °F 11.1 °F 1015.8 in Calm   3.2 mph 72 % 0.0 in
02:05 16.0 °F 10.9 °F 1015.8 in Calm   1.6 mph 72 % 0.0 in
02:15 15.7 °F 10.4 °F 1015.8 in ENE 1.6 mph 3.2 mph 71 % 0.0 in
02:25 15.6 °F 10.8 °F 1015.8 in Calm   1.6 mph 73 % 0.0 in
02:35 15.5 °F 10.7 °F 1015.8 in Calm     73 % 0.0 in
02:45 15.6 °F 10.8 °F 1015.8 in WSW 1.6 mph 1.6 mph 73 % 0.0 in
02:55 15.6 °F 11.0 °F 1015.8 in Calm     74 % 0.0 in
03:05 15.9 °F 11.1 °F 1015.8 in WSW 1.6 mph 1.6 mph 73 % 0.0 in
03:15 16.0 °F 11.2 °F 1015.8 in Calm     73 % 0.0 in
03:25 16.2 °F 11.2 °F 1015.8 in SW 1.6 mph 1.6 mph 72 % 0.0 in
03:35 16.3 °F 11.2 °F 1015.8 in SW 3.2 mph 3.2 mph 72 % 0.0 in
03:45 16.8 °F 11.9 °F 1015.8 in Calm   1.6 mph 73 % 0.0 in
03:55 16.8 °F 11.5 °F 1015.8 in SSW 1.6 mph 3.2 mph 71 % 0.0 in
04:05 17.3 °F 11.8 °F 1015.8 in SSW 1.6 mph 1.6 mph 70 % 0.0 in
04:15 17.7 °F 11.9 °F 1015.8 in SW 1.6 mph 1.6 mph 69 % 0.0 in
04:25 18.2 °F 12.2 °F 1015.8 in Calm   3.2 mph 68 % 0.0 in
04:35 18.6 °F 12.6 °F 1015.8 in East 1.6 mph 1.6 mph 68 % 0.0 in
04:45 18.7 °F 12.4 °F 1015.8 in NNE 1.6 mph 6.4 mph 67 % 0.0 in
04:55 18.9 °F 12.6 °F 1015.8 in West 3.2 mph 3.2 mph 67 % 0.0 in
05:05 19.5 °F 13.0 °F 1015.8 in SW 1.6 mph 4.8 mph 66 % 0.0 in
05:15 19.6 °F 12.8 °F 1015.8 in SW 1.6 mph 3.2 mph 65 % 0.0 in
05:25 20.0 °F 12.7 °F 1015.8 in SW 3.2 mph 3.2 mph 63 % 0.0 in
05:35 20.6 °F 13.3 °F 1015.8 in NNE 1.6 mph 3.2 mph 63 % 0.0 in
05:45 20.6 °F 13.1 °F 1015.8 in NW 3.2 mph 4.8 mph 62 % 0.0 in
05:55 20.9 °F 13.3 °F 1015.8 in WSW 1.6 mph 4.8 mph 62 % 0.0 in
06:05 21.5 °F 13.7 °F 1015.8 in SSW 3.2 mph 4.8 mph 61 % 0.0 in
06:20 21.9 °F 14.1 °F 1015.8 in SSE 3.2 mph 3.2 mph 61 % 0.0 in
11:22 22.0 °F 13.9 °F 1015.8 in ESE 1.9 mph 2.6 mph 60 % 0.0 in
11:23 22.0 °F 13.9 °F 1015.8 in SE 5.0 mph 5.0 mph 60 % 0.0 in
11:24 21.9 °F 13.8 °F 1015.8 in SE 5.6 mph 5.6 mph 60 % 0.0 in
11:29 22.3 °F 14.2 °F 1015.8 in WSW 4.2 mph 4.2 mph 60 % 0.0 in
11:34 22.5 °F 14.1 °F 1015.8 in SSE 7.6 mph 7.6 mph 59 % 0.0 in
11:39 22.7 °F 14.0 °F 1015.8 in East 5.0 mph 5.0 mph 58 % 0.0 in
11:44 22.6 °F 13.9 °F 1015.8 in ENE 5.6 mph 5.6 mph 58 % 0.0 in
11:49 22.6 °F 13.7 °F 1015.8 in ENE 4.2 mph 4.2 mph 57 % 0.0 in
11:54 22.7 °F 13.4 °F 1015.8 in ESE 5.6 mph 5.6 mph 56 % 0.0 in
11:59 22.9 °F 13.7 °F 1015.8 in WSW 5.8 mph 5.8 mph 56 % 0.0 in
12:04 23.5 °F 13.1 °F 1015.8 in SSE 5.6 mph 5.6 mph 52 % 0.0 in
12:09 23.5 °F 13.1 °F 1014.8 in North 3.7 mph 3.7 mph 52 % 0.0 in
12:14 23.7 °F 12.9 °F 1014.8 in ENE 2.3 mph 2.3 mph 51 % 0.0 in
12:19 24.0 °F 12.9 °F 1014.8 in Calm     50 % 0.0 in
12:24 24.1 °F 12.7 °F 1015.8 in SSW 5.6 mph 5.6 mph 49 % 0.0 in
12:29 24.1 °F 12.7 °F 1015.8 in SW 3.7 mph 3.7 mph 49 % 0.0 in
12:34 24.1 °F 12.4 °F 1015.8 in SW 7.4 mph 7.4 mph 48 % 0.0 in
12:39 24.1 °F 12.1 °F 1014.8 in SSE 5.6 mph 5.6 mph 47 % 0.0 in
12:44 23.8 °F 11.8 °F 1014.8 in South 7.4 mph 7.4 mph 47 % 0.0 in
12:49 23.8 °F 12.1 °F 1014.8 in SW 7.4 mph 7.4 mph 48 % 0.0 in
12:54 24.1 °F 12.1 °F 1014.8 in South 3.9 mph 3.9 mph 47 % 0.0 in
12:59 23.9 °F 11.9 °F 1014.8 in SE 7.4 mph 7.4 mph 47 % 0.0 in
13:04 23.8 °F 11.5 °F 1014.8 in South 7.4 mph 7.4 mph 46 % 0.0 in
13:09 23.8 °F 11.5 °F 1013.8 in SE 9.3 mph 9.3 mph 46 % 0.0 in
13:14 24.0 °F 11.7 °F 1013.8 in WSW 5.6 mph 5.6 mph 46 % 0.0 in
13:19 24.1 °F 11.4 °F 1013.8 in SSW 5.6 mph 5.6 mph 45 % 0.0 in
13:24 24.5 °F 11.8 °F 1013.8 in WSW 7.4 mph 7.4 mph 45 % 0.0 in
13:29 24.7 °F 11.3 °F 1013.8 in SW 1.9 mph 1.9 mph 43 % 0.0 in
13:34 25.0 °F 11.6 °F 1013.8 in SSW 5.6 mph 5.6 mph 43 % 0.0 in
13:39 25.1 °F 11.6 °F 1013.8 in WSW 6.1 mph 6.1 mph 43 % 0.0 in
13:44 25.2 °F 11.7 °F 1013.8 in South 13.0 mph 13.0 mph 43 % 0.0 in
13:49 25.2 °F 11.4 °F 1013.8 in SW 7.4 mph 7.4 mph 42 % 0.0 in
13:54 25.1 °F 11.3 °F 1013.8 in WSW 6.4 mph 6.4 mph 42 % 0.0 in
13:59 25.2 °F 11.0 °F 1013.8 in WSW 7.4 mph 7.4 mph 41 % 0.0 in
14:04 25.5 °F 11.3 °F 1013.8 in SSW 3.7 mph 3.7 mph 41 % 0.0 in
14:09 25.6 °F 11.4 °F 1013.8 in WSW 5.6 mph 5.6 mph 41 % 0.0 in
14:14 25.9 °F 11.6 °F 1013.8 in SW 3.7 mph 3.7 mph 41 % 0.0 in
14:19 26.2 °F 11.9 °F 1013.8 in SSW 5.6 mph 5.6 mph 41 % 0.0 in
14:24 26.6 °F 12.3 °F 1013.8 in SSW 10.0 mph 10.0 mph 41 % 0.0 in
14:29 26.0 °F 11.7 °F 1013.8 in West 3.7 mph 3.7 mph 41 % 0.0 in
14:34 26.1 °F 11.4 °F 1013.8 in West 9.0 mph 9.0 mph 40 % 0.0 in
14:39 26.2 °F 11.2 °F 1012.8 in WSW 3.7 mph 3.7 mph 39 % 0.0 in
14:44 26.3 °F 11.2 °F 1012.8 in SW 3.9 mph 3.9 mph 39 % 0.0 in
14:49 26.5 °F 11.8 °F 1012.8 in SSW 5.6 mph 5.6 mph 40 % 0.0 in
14:54 26.6 °F 11.9 °F 1012.8 in SW 5.6 mph 5.6 mph 40 % 0.0 in
14:59 26.8 °F 11.7 °F 1012.8 in WSW 3.7 mph 3.7 mph 39 % 0.0 in
15:04 26.8 °F 11.3 °F 1012.8 in SSE 3.7 mph 3.7 mph 38 % 0.0 in
15:09 26.5 °F 11.0 °F 1012.8 in East 4.2 mph 4.2 mph 38 % 0.0 in
15:14 26.9 °F 11.4 °F 1012.8 in WSW 5.6 mph 5.6 mph 38 % 0.0 in
15:19 27.4 °F 11.4 °F 1012.8 in WSW 3.7 mph 3.7 mph 37 % 0.0 in
15:24 27.3 °F 10.9 °F 1011.7 in SSE 7.4 mph 7.4 mph 36 % 0.0 in
15:29 27.3 °F 10.9 °F 1011.7 in ESE 6.1 mph 6.1 mph 36 % 0.0 in
15:34 27.7 °F 11.7 °F 1011.7 in SSE 9.3 mph 9.3 mph 37 % 0.0 in
15:39 28.3 °F 12.2 °F 1011.7 in West 5.6 mph 5.6 mph 37 % 0.0 in
15:44 28.3 °F 12.2 °F 1011.7 in SW 4.7 mph 4.7 mph 37 % 0.0 in
15:49 28.4 °F 12.3 °F 1011.7 in WSW 7.6 mph 7.6 mph 37 % 0.0 in
15:54 28.3 °F 12.2 °F 1011.7 in SSW 7.6 mph 7.6 mph 37 % 0.0 in
15:59 27.9 °F 11.9 °F 1011.7 in WSW 6.4 mph 6.4 mph 37 % 0.0 in
16:04 27.9 °F 11.9 °F 1011.7 in SW 7.9 mph 7.9 mph 37 % 0.0 in
16:09 28.0 °F 11.6 °F 1011.7 in South 5.6 mph 5.6 mph 36 % 0.0 in
16:14 28.0 °F 11.6 °F 1011.7 in WSW 7.4 mph 7.4 mph 36 % 0.0 in
16:19 27.9 °F 11.9 °F 1011.7 in WSW 6.1 mph 6.9 mph 37 % 0.0 in
16:24 27.9 °F 12.3 °F 1011.7 in SSW 7.4 mph 7.4 mph 38 % 0.0 in
16:25 28.0 °F 12.3 °F 1011.7 in South 7.4 mph 7.4 mph 38 % 0.0 in
16:30 27.5 °F 11.9 °F 1011.7 in SW 6.4 mph 6.4 mph 38 % 0.0 in
16:35 27.3 °F 12.1 °F 1011.7 in SSW 11.1 mph 11.1 mph 39 % 0.0 in
16:40 27.6 °F 12.4 °F 1011.7 in South 9.3 mph 9.3 mph 39 % 0.0 in
16:45 27.5 °F 12.3 °F 1011.7 in SW 9.3 mph 9.3 mph 39 % 0.0 in
16:50 27.9 °F 12.7 °F 1011.7 in WSW 4.8 mph 9.7 mph 39 % 0.0 in
16:55 28.3 °F 12.6 °F 1011.7 in WSW 3.2 mph 6.4 mph 38 % 0.0 in
17:00 28.6 °F 12.9 °F 1011.7 in WSW 9.3 mph 9.3 mph 38 % 0.0 in
17:05 28.5 °F 12.4 °F 1011.7 in SW 9.3 mph 9.3 mph 37 % 0.0 in
17:10 28.6 °F 12.5 °F 1011.7 in SSW 4.8 mph 11.3 mph 37 % 0.0 in
17:15 27.9 °F 12.3 °F 1011.7 in SSE 3.9 mph 3.9 mph 38 % 0.0 in
17:20 27.6 °F 12.8 °F 1011.7 in South 7.4 mph 7.4 mph 40 % 0.0 in
17:25 27.9 °F 12.7 °F 1010.7 in East 7.4 mph 7.4 mph 39 % 0.0 in
17:30 28.1 °F 12.8 °F 1010.7 in South 6.1 mph 6.1 mph 39 % 0.0 in
17:35 27.8 °F 12.6 °F 1010.7 in SSE 5.6 mph 5.6 mph 39 % 0.0 in
17:40 28.0 °F 12.8 °F 1010.7 in West 5.6 mph 5.6 mph 39 % 0.0 in
17:45 28.3 °F 13.0 °F 1010.7 in SW 3.7 mph 3.7 mph 39 % 0.0 in
17:50 28.5 °F 13.2 °F 1010.7 in South 4.8 mph 9.7 mph 39 % 0.0 in
17:55 28.2 °F 12.9 °F 1010.7 in SW 8.0 mph 14.5 mph 39 % 0.0 in
18:00 28.5 °F 13.6 °F 1010.7 in SW 7.4 mph 7.4 mph 40 % 0.0 in
18:05 28.5 °F 13.2 °F 1010.7 in West 5.6 mph 6.1 mph 39 % 0.0 in
18:10 28.4 °F 13.5 °F 1010.7 in SW 4.8 mph 11.3 mph 40 % 0.0 in
18:15 28.5 °F 13.6 °F 1010.7 in SW 3.2 mph 9.7 mph 40 % 0.0 in
18:20 27.8 °F 13.3 °F 1010.7 in SSW 11.1 mph 11.1 mph 41 % 0.0 in
18:25 28.0 °F 13.5 °F 1011.7 in SSW 3.2 mph 8.0 mph 41 % 0.0 in
18:30 27.9 °F 13.8 °F 1011.7 in SSW 3.2 mph 8.0 mph 42 % 0.0 in
18:35 27.5 °F 13.4 °F 1011.7 in WSW 7.4 mph 7.4 mph 42 % 0.0 in
18:40 27.1 °F 13.4 °F 1011.7 in SW 8.0 mph 11.3 mph 43 % 0.0 in
18:45 26.9 °F 13.6 °F 1011.7 in SSW 3.2 mph 8.0 mph 44 % 0.0 in
18:50 27.2 °F 13.9 °F 1011.7 in SSW 3.2 mph 9.7 mph 44 % 0.0 in
18:55 27.1 °F 14.2 °F 1011.7 in SSW 9.3 mph 9.3 mph 45 % 0.0 in
19:00 27.0 °F 14.1 °F 1011.7 in West 5.0 mph 5.0 mph 45 % 0.0 in
19:05 26.8 °F 14.2 °F 1011.7 in SW 4.8 mph 9.7 mph 46 % 0.0 in
19:10 26.5 °F 14.3 °F 1011.7 in SW 3.2 mph 8.0 mph 47 % 0.0 in
19:15 26.3 °F 14.1 °F 1011.7 in SW 1.6 mph 8.0 mph 47 % 0.0 in
19:20 26.1 °F 14.2 °F 1011.7 in WSW 5.6 mph 5.6 mph 48 % 0.0 in
19:25 26.0 °F 14.1 °F 1011.7 in West 1.6 mph 4.8 mph 48 % 0.0 in
19:30 25.5 °F 14.0 °F 1011.7 in NNW 3.2 mph 8.0 mph 49 % 0.0 in
19:35 25.0 °F 14.1 °F 1011.7 in East 3.2 mph 9.7 mph 51 % 0.0 in
19:40 24.7 °F 14.8 °F 1011.7 in ESE 13.0 mph 13.0 mph 54 % 0.0 in
19:45 24.3 °F 14.7 °F 1011.7 in East 8.0 mph 12.9 mph 55 % 0.0 in
19:50 23.9 °F 15.1 °F 1011.7 in East 13.0 mph 13.0 mph 58 % 0.0 in
19:55 23.7 °F 15.5 °F 1011.7 in ESE 15.8 mph 15.8 mph 60 % 0.0 in
20:00 23.6 °F 15.4 °F 1011.7 in ESE 8.0 mph 16.1 mph 60 % 0.0 in
20:05 23.5 °F 15.3 °F 1011.7 in East 4.8 mph 9.7 mph 60 % 0.0 in
20:10 23.4 °F 15.4 °F 1011.7 in East 8.0 mph 14.5 mph 61 % 0.0 in
20:15 23.1 °F 15.9 °F 1011.7 in East 8.0 mph 12.9 mph 64 % 0.0 in
20:20 23.0 °F 16.1 °F 1011.7 in East 4.8 mph 12.9 mph 65 % 0.0 in
20:25 22.8 °F 16.1 °F 1011.7 in East 8.0 mph 9.7 mph 66 % 0.0 in
20:30 22.8 °F 16.1 °F 1011.7 in East 8.0 mph 12.9 mph 66 % 0.0 in
20:35 22.6 °F 16.2 °F 1011.7 in East 8.0 mph 11.3 mph 67 % 0.0 in
20:40 22.5 °F 16.3 °F 1011.7 in East 13.0 mph 13.0 mph 68 % 0.0 in
20:45 22.5 °F 16.3 °F 1011.7 in East 3.2 mph 9.7 mph 68 % 0.0 in
20:50 22.5 °F 16.3 °F 1011.7 in ENE 4.8 mph 8.0 mph 68 % 0.0 in
20:55 22.4 °F 16.2 °F 1011.7 in ENE 3.2 mph 9.7 mph 68 % 0.0 in
21:00 22.3 °F 15.9 °F 1011.7 in ENE 3.2 mph 8.0 mph 67 % 0.0 in
21:05 22.1 °F 15.7 °F 1011.7 in ENE 8.0 mph 11.3 mph 67 % 0.0 in
21:06 22.0 °F 15.8 °F 1011.7 in East 9.3 mph 9.3 mph 68 % 0.0 in
21:10 19.8 °F 15.8 °F 1011.7 in Calm     78 % 0.0 in
21:11 22.0 °F 15.8 °F 1011.7 in East 9.3 mph 9.3 mph 68 % 0.0 in
21:16 21.9 °F 15.9 °F 1011.7 in ENE 7.4 mph 7.4 mph 69 % 0.0 in
21:20 19.6 °F 15.8 °F 1011.7 in East 1.6 mph 3.2 mph 79 % 0.0 in
21:21 21.8 °F 16.1 °F 1011.7 in ENE 5.6 mph 5.8 mph 70 % 0.0 in
21:26 21.8 °F 15.8 °F 1011.7 in North 7.4 mph 7.4 mph 69 % 0.0 in
21:30 19.4 °F 15.8 °F 1011.7 in ENE 1.6 mph 3.2 mph 80 % 0.0 in
21:31 21.7 °F 16.0 °F 1011.7 in NE 7.4 mph 7.4 mph 70 % 0.0 in
21:36 21.6 °F 15.9 °F 1011.7 in ENE 5.6 mph 5.8 mph 70 % 0.0 in
21:40 19.3 °F 15.9 °F 1010.7 in NE 1.6 mph 3.2 mph 81 % 0.0 in
21:41 21.5 °F 15.8 °F 1012.8 in ESE 3.7 mph 3.7 mph 70 % 0.0 in
21:46 21.5 °F 15.8 °F 1012.8 in ENE 7.6 mph 7.6 mph 70 % 0.0 in
21:50 19.3 °F 16.2 °F 1010.7 in Calm   1.6 mph 82 % 0.0 in
21:51 21.4 °F 15.7 °F 1012.8 in NE 5.6 mph 5.6 mph 70 % 0.0 in
21:56 21.3 °F 15.6 °F 1013.8 in ENE 7.4 mph 7.4 mph 70 % 0.0 in
22:00 19.3 °F 16.2 °F 1011.7 in NNE 1.6 mph 1.6 mph 82 % 0.0 in
22:01 21.2 °F 15.7 °F 1013.8 in East 6.4 mph 6.4 mph 71 % 0.0 in
22:06 21.1 °F 15.6 °F 1013.8 in ESE 7.4 mph 7.4 mph 71 % 0.0 in
22:10 19.3 °F 16.3 °F 1011.7 in Calm     83 % 0.0 in
22:11 21.0 °F 15.6 °F 1012.8 in NNE 5.6 mph 5.6 mph 71 % 0.0 in
22:16 21.0 °F 15.6 °F 1012.8 in East 5.6 mph 5.6 mph 71 % 0.0 in
22:20 19.3 °F 16.3 °F 1011.7 in West 1.6 mph 3.2 mph 83 % 0.0 in
22:21 21.0 °F 15.8 °F 1012.8 in ENE 5.6 mph 5.6 mph 72 % 0.0 in
22:26 21.0 °F 15.6 °F 1012.8 in NNE 5.8 mph 5.8 mph 71 % 0.0 in
22:30 19.2 °F 16.4 °F 1011.7 in Calm   1.6 mph 84 % 0.0 in
22:31 20.9 °F 15.7 °F 1012.8 in North 5.6 mph 5.6 mph 72 % 0.0 in
22:36 20.9 °F 15.7 °F 1012.8 in ESE 6.4 mph 6.4 mph 72 % 0.0 in
22:40 19.3 °F 16.7 °F 1011.7 in NNE 1.6 mph 3.2 mph 85 % 0.0 in
22:41 20.8 °F 15.8 °F 1012.8 in East 3.7 mph 3.7 mph 73 % 0.0 in
22:46 20.8 °F 15.6 °F 1012.8 in ENE 4.2 mph 4.2 mph 72 % 0.0 in
22:50 19.2 °F 16.6 °F 1011.7 in Calm   3.2 mph 85 % 0.0 in
22:51 20.7 °F 15.4 °F 1012.8 in East 7.4 mph 7.4 mph 72 % 0.0 in
22:56 20.6 °F 15.6 °F 1012.8 in East 3.9 mph 3.9 mph 73 % 0.0 in
23:00 19.0 °F 16.4 °F 1010.7 in Calm   3.2 mph 85 % 0.0 in
23:01 20.6 °F 15.6 °F 1012.8 in ENE 3.7 mph 3.7 mph 73 % 0.0 in
23:06 20.5 °F 15.5 °F 1012.8 in NNE 5.8 mph 5.8 mph 73 % 0.0 in
23:10 19.0 °F 16.6 °F 1011.7 in SSW 1.6 mph 3.2 mph 86 % 0.0 in
23:11 20.5 °F 15.5 °F 1012.8 in NNE 5.6 mph 5.6 mph 73 % 0.0 in
23:16 20.5 °F 15.5 °F 1012.8 in NE 5.6 mph 5.6 mph 73 % 0.0 in
23:20 19.0 °F 16.4 °F 1011.7 in North 3.2 mph 3.2 mph 85 % 0.0 in
23:21 20.5 °F 15.5 °F 1012.8 in East 3.7 mph 3.9 mph 73 % 0.0 in
23:26 20.4 °F 15.4 °F 1013.8 in NE 3.7 mph 3.7 mph 73 % 0.0 in
23:30 18.9 °F 16.3 °F 1012.8 in WNW 3.2 mph 3.2 mph 85 % 0.0 in
23:31 20.4 °F 15.4 °F 1013.8 in NNE 5.6 mph 5.6 mph 73 % 0.0 in
23:36 20.4 °F 15.6 °F 1013.8 in NE 5.6 mph 5.6 mph 74 % 0.0 in
23:40 18.9 °F 16.7 °F 1011.7 in Calm   1.6 mph 87 % 0.0 in
23:41 20.4 °F 15.6 °F 1012.8 in NE 3.7 mph 3.7 mph 74 % 0.0 in
23:46 20.4 °F 15.6 °F 1012.8 in ESE 3.7 mph 3.7 mph 74 % 0.0 in
23:50 18.9 °F 16.7 °F 1011.7 in NW 1.6 mph 3.2 mph 87 % 0.0 in
23:51 20.3 °F 15.5 °F 1012.8 in East 3.7 mph 3.7 mph 74 % 0.0 in
23:56 20.3 °F 15.5 °F 1012.8 in South 1.9 mph   74 % 0.0 in
Meteo Sesrovires
Elogis d' Weather Underground - 2 mb

Guio original per  Jim McMurry - jmcmurry@mwt.net Adaptat per a la plantilla per  Wim van der Kuil - Leuven-Template.eu

Trobareu la nostra informacio del temps tambe a:

Weather Underground

AWEKAS